Time;durP1;ratioP1;P1;durP2;ratioP2;P2;SDS_P1;SDS_P2;PMS_P1;PMS_P2;Temp;Humidity;BMP_temperature;BMP_pressure;BME280_temperature;BME280_humidity;BME280_pressure;Samples;Min_cycle;Max_cycle;Signal;HPM_P1;HPM_P2
2023/06/27 00:00:54;;;;;;;2.38;1.42;;;27.40;37.40;;;;;;5107721;27;45248;-66
2023/06/27 00:03:24;;;;;;;1.73;1.63;;;27.40;37.40;;;;;;5108059;27;45383;-67
2023/06/27 00:05:51;;;;;;;1.70;1.60;;;27.40;37.40;;;;;;5108031;27;45312;-66
2023/06/27 00:08:18;;;;;;;3.60;1.60;;;27.30;37.50;;;;;;5108226;27;45334;-66
2023/06/27 00:10:45;;;;;;;1.67;1.55;;;27.30;37.40;;;;;;5107573;27;46404;-67
2023/06/27 00:13:16;;;;;;;2.00;1.80;;;27.30;37.50;;;;;;5107527;27;45343;-66
2023/06/27 00:15:44;;;;;;;2.85;1.80;;;27.30;37.50;;;;;;5107972;27;45264;-66
2023/06/27 00:18:11;;;;;;;2.65;1.60;;;27.20;37.50;;;;;;5108131;27;45497;-66
2023/06/27 00:20:38;;;;;;;2.13;1.60;;;27.20;37.50;;;;;;5107591;27;46760;-68
2023/06/27 00:23:18;;;;;;;2.50;1.60;;;27.20;37.50;;;;;;5107400;27;45366;-66
2023/06/27 00:25:45;;;;;;;2.42;1.50;;;27.20;37.50;;;;;;5107784;27;45339;-66
2023/06/27 00:28:12;;;;;;;2.17;1.30;;;27.20;37.60;;;;;;5107855;27;45393;-66
2023/06/27 00:30:39;;;;;;;1.52;1.38;;;27.20;37.60;;;;;;5107176;27;45409;-67
2023/06/27 00:33:09;;;;;;;2.42;1.58;;;27.20;37.60;;;;;;5107337;27;45366;-66
2023/06/27 00:35:35;;;;;;;2.97;1.80;;;27.10;37.60;;;;;;5107692;27;45279;-67
2023/06/27 00:38:02;;;;;;;1.90;1.80;;;27.10;37.60;;;;;;5107797;27;45325;-67
2023/06/27 00:40:29;;;;;;;1.85;1.52;;;27.10;37.60;;;;;;5107426;27;45308;-66
2023/06/27 00:42:56;;;;;;;1.52;1.40;;;27.10;37.60;;;;;;5107262;27;45321;-68
2023/06/27 00:45:23;;;;;;;2.45;1.80;;;27.10;37.70;;;;;;5116233;27;45374;-66
2023/06/27 00:47:50;;;;;;;1.92;1.60;;;27.10;37.70;;;;;;5128206;27;45421;-67
2023/06/27 00:50:18;;;;;;;2.42;1.50;;;27.00;37.70;;;;;;5123858;27;45292;-66
2023/06/27 00:52:45;;;;;;;2.15;1.48;;;27.00;37.80;;;;;;5107021;27;45300;-66
2023/06/27 00:55:12;;;;;;;2.00;1.70;;;27.00;37.80;;;;;;5107129;27;45195;-66
2023/06/27 00:57:40;;;;;;;1.63;1.48;;;27.00;37.80;;;;;;5107654;27;45297;-66
2023/06/27 01:00:09;;;;;;;2.40;1.45;;;27.00;37.80;;;;;;5106944;27;45551;-66
2023/06/27 01:02:36;;;;;;;1.58;1.48;;;26.90;37.80;;;;;;5106912;27;45446;-66
2023/06/27 01:05:03;;;;;;;1.40;1.30;;;26.90;38.50;;;;;;5107133;27;45275;-66
2023/06/27 01:07:35;;;;;;;1.85;1.55;;;26.90;37.90;;;;;;5107232;27;45260;-66
2023/06/27 01:10:04;;;;;;;2.00;1.60;;;26.90;38.50;;;;;;5106726;27;46396;-66
2023/06/27 01:12:34;;;;;;;2.22;1.25;;;26.90;37.90;;;;;;5106828;27;45334;-67
2023/06/27 01:15:01;;;;;;;1.60;1.38;;;26.90;37.90;;;;;;5106965;27;45333;-66
2023/06/27 01:17:28;;;;;;;2.28;1.17;;;26.80;37.90;;;;;;5107243;27;45647;-66
2023/06/27 01:19:55;;;;;;;2.10;1.60;;;26.80;37.80;;;;;;5106922;27;45619;-66
2023/06/27 01:22:29;;;;;;;1.42;1.25;;;26.80;37.90;;;;;;5106556;27;45486;-66
2023/06/27 01:24:59;;;;;;;1.55;1.40;;;26.80;38.00;;;;;;5106962;27;45287;-66
2023/06/27 01:27:28;;;;;;;2.63;1.40;;;26.80;38.00;;;;;;5106999;27;45124;-66
2023/06/27 01:29:54;;;;;;;2.35;1.60;;;26.70;37.90;;;;;;5106282;27;45306;-66
2023/06/27 01:32:23;;;;;;;2.78;1.30;;;26.70;38.00;;;;;;5106468;27;45324;-66
2023/06/27 01:34:53;;;;;;;2.72;1.50;;;26.70;38.00;;;;;;5106717;27;45409;-66
2023/06/27 01:37:22;;;;;;;1.30;1.20;;;26.70;38.10;;;;;;5106846;27;45438;-67
2023/06/27 01:39:51;;;;;;;1.85;1.15;;;26.70;38.10;;;;;;5106261;27;46433;-66
2023/06/27 01:42:20;;;;;;;1.38;1.27;;;26.70;38.10;;;;;;5106338;27;45250;-66
2023/06/27 01:44:47;;;;;;;1.25;1.13;;;26.70;38.10;;;;;;5110407;27;45504;-66
2023/06/27 01:47:14;;;;;;;1.52;1.30;;;26.60;38.10;;;;;;5127297;27;45493;-65
2023/06/27 01:49:41;;;;;;;2.28;1.38;;;26.60;38.10;;;;;;5127174;27;46759;-66
2023/06/27 01:52:09;;;;;;;1.40;1.30;;;26.60;38.10;;;;;;5124369;27;45408;-65
2023/06/27 01:54:36;;;;;;;1.23;1.10;;;26.60;38.10;;;;;;5126893;27;45318;-65
2023/06/27 01:57:03;;;;;;;2.08;1.40;;;26.60;38.10;;;;;;5127200;27;45361;-65
2023/06/27 01:59:31;;;;;;;2.28;1.60;;;26.50;38.10;;;;;;5126754;27;45341;-66
2023/06/27 02:01:58;;;;;;;2.13;1.25;;;26.50;38.10;;;;;;5126593;27;45358;-66
2023/06/27 02:04:25;;;;;;;1.40;1.30;;;26.50;38.20;;;;;;5127066;27;45378;-66
2023/06/27 02:06:52;;;;;;;3.08;1.15;;;26.50;38.10;;;;;;5127084;27;45425;-66
2023/06/27 02:09:18;;;;;;;2.03;1.48;;;26.50;38.10;;;;;;5126583;27;46351;-66
2023/06/27 02:11:46;;;;;;;1.45;1.35;;;26.50;38.40;;;;;;5126710;27;45419;-65
2023/06/27 02:14:12;;;;;;;1.95;1.48;;;26.50;38.40;;;;;;5126928;27;45283;-66
2023/06/27 02:16:41;;;;;;;3.53;1.77;;;26.50;38.40;;;;;;5128210;27;45378;-65
2023/06/27 02:19:07;;;;;;;2.55;1.83;;;26.40;38.40;;;;;;5130161;27;45315;-67
2023/06/27 02:21:34;;;;;;;1.20;1.10;;;26.40;38.50;;;;;;5129953;27;45507;-65
2023/06/27 02:24:01;;;;;;;2.22;1.33;;;26.40;38.50;;;;;;5130501;27;45390;-66
2023/06/27 02:26:28;;;;;;;3.50;1.58;;;26.40;39.20;;;;;;5130737;27;45326;-65
2023/06/27 02:28:55;;;;;;;1.75;1.50;;;26.40;38.60;;;;;;5130128;27;46417;-65
2023/06/27 02:31:22;;;;;;;2.72;1.30;;;26.40;38.70;;;;;;5129741;27;45340;-67
2023/06/27 02:33:50;;;;;;;1.40;1.30;;;26.40;38.60;;;;;;5130143;27;45330;-66
2023/06/27 02:36:17;;;;;;;1.08;1.08;;;26.40;38.70;;;;;;5130378;27;45399;-65
2023/06/27 02:38:44;;;;;;;2.15;1.60;;;26.40;38.70;;;;;;5130045;27;46500;-65
2023/06/27 02:41:11;;;;;;;1.38;1.27;;;26.30;38.60;;;;;;5130050;27;45365;-65
2023/06/27 02:43:39;;;;;;;3.85;1.38;;;26.30;38.60;;;;;;5130210;27;45453;-66
2023/06/27 02:46:06;;;;;;;1.27;1.05;;;26.30;38.70;;;;;;5115015;27;45398;-65
2023/06/27 02:48:33;;;;;;;1.60;1.30;;;26.30;38.60;;;;;;5109206;27;45251;-66
2023/06/27 02:51:01;;;;;;;1.33;1.23;;;26.30;38.60;;;;;;5109192;27;45411;-66
2023/06/27 02:53:28;;;;;;;2.47;1.60;;;26.30;38.60;;;;;;5109288;27;45349;-66
2023/06/27 02:55:57;;;;;;;1.88;1.30;;;26.20;38.60;;;;;;5109379;27;45382;-65
2023/06/27 02:58:24;;;;;;;2.10;1.50;;;26.20;38.60;;;;;;5108908;27;45491;-65
2023/06/27 03:00:51;;;;;;;1.48;1.05;;;26.20;38.60;;;;;;5108838;27;45307;-67
2023/06/27 03:03:18;;;;;;;1.67;1.33;;;26.20;38.60;;;;;;5109121;27;45425;-65
2023/06/27 03:05:44;;;;;;;2.00;1.30;;;26.20;38.70;;;;;;5109176;27;45494;-66
2023/06/27 03:08:13;;;;;;;1.48;1.25;;;26.20;38.70;;;;;;5108721;27;46692;-67
2023/06/27 03:10:39;;;;;;;2.45;1.30;;;26.20;38.70;;;;;;5108806;27;45240;-65
2023/06/27 03:13:06;;;;;;;1.58;1.40;;;26.20;38.70;;;;;;5108874;27;45285;-66
2023/06/27 03:15:33;;;;;;;1.48;1.20;;;26.10;38.70;;;;;;5108934;27;45480;-66
2023/06/27 03:18:00;;;;;;;1.23;1.13;;;26.10;38.70;;;;;;5108777;27;46533;-67
2023/06/27 03:20:27;;;;;;;2.00;1.40;;;26.10;38.70;;;;;;5108633;27;45409;-66
2023/06/27 03:22:53;;;;;;;1.92;1.08;;;26.10;38.60;;;;;;5108764;27;45275;-65
2023/06/27 03:25:22;;;;;;;1.88;1.30;;;26.10;38.70;;;;;;5108917;27;45264;-66
2023/06/27 03:27:48;;;;;;;1.50;1.15;;;26.10;38.70;;;;;;5107303;27;46379;-66
2023/06/27 03:30:15;;;;;;;1.30;1.20;;;26.10;38.70;;;;;;5108119;27;45325;-66
2023/06/27 03:32:42;;;;;;;1.38;1.27;;;26.10;38.80;;;;;;5108999;27;45299;-66
2023/06/27 03:35:09;;;;;;;1.77;1.10;;;26.00;38.80;;;;;;5108723;27;45433;-66
2023/06/27 03:37:36;;;;;;;1.13;1.05;;;26.00;38.80;;;;;;5108275;27;47429;-66
2023/06/27 03:40:03;;;;;;;1.70;1.48;;;26.00;38.80;;;;;;5108359;27;45250;-66
2023/06/27 03:42:32;;;;;;;2.35;1.13;;;26.00;38.80;;;;;;5108734;27;45378;-66
2023/06/27 03:44:59;;;;;;;1.15;1.08;;;26.00;38.80;;;;;;5113879;27;45247;-66
2023/06/27 03:47:26;;;;;;;1.83;1.20;;;26.00;38.80;;;;;;5128774;27;45679;-66
2023/06/27 03:49:53;;;;;;;2.42;1.30;;;26.00;38.80;;;;;;5125718;27;45406;-67
2023/06/27 03:52:19;;;;;;;1.83;1.40;;;26.00;38.90;;;;;;5108245;27;45338;-66
2023/06/27 03:54:46;;;;;;;1.40;1.30;;;26.00;38.90;;;;;;5108326;27;45395;-66
2023/06/27 03:57:13;;;;;;;1.63;1.50;;;26.00;38.90;;;;;;5107999;27;45524;-65
2023/06/27 03:59:42;;;;;;;1.42;1.25;;;25.90;38.80;;;;;;5108066;27;45173;-65
2023/06/27 04:02:09;;;;;;;1.48;1.10;;;25.90;38.80;;;;;;5108078;27;45315;-65
2023/06/27 04:04:35;;;;;;;2.25;1.45;;;25.90;38.80;;;;;;5108277;27;45292;-65
2023/06/27 04:07:02;;;;;;;2.08;1.30;;;25.90;38.80;;;;;;5107859;27;46461;-65
2023/06/27 04:09:29;;;;;;;1.95;1.35;;;25.90;38.90;;;;;;5107937;27;45450;-66
2023/06/27 04:11:58;;;;;;;2.05;1.40;;;25.90;38.80;;;;;;5107951;27;45279;-65
2023/06/27 04:14:25;;;;;;;1.48;1.15;;;25.90;38.90;;;;;;5107958;27;45431;-65
2023/06/27 04:16:53;;;;;;;1.30;1.20;;;25.90;38.80;;;;;;5107694;27;46494;-65
2023/06/27 04:19:20;;;;;;;1.38;1.27;;;25.90;38.90;;;;;;5107840;27;45302;-66
2023/06/27 04:21:47;;;;;;;2.90;1.38;;;25.90;38.90;;;;;;5107807;27;45285;-67
2023/06/27 04:24:14;;;;;;;1.48;1.38;;;25.90;38.90;;;;;;5108097;27;45442;-66
2023/06/27 04:26:42;;;;;;;1.38;1.15;;;25.90;38.90;;;;;;5107485;27;46404;-66
2023/06/27 04:29:09;;;;;;;4.15;1.30;;;25.80;38.90;;;;;;5107454;27;45328;-66
2023/06/27 04:31:35;;;;;;;1.77;1.10;;;25.80;38.90;;;;;;5107571;27;45290;-66
2023/06/27 04:34:04;;;;;;;2.65;1.55;;;25.80;38.90;;;;;;5107716;27;45249;-66
2023/06/27 04:36:30;;;;;;;1.65;1.20;;;25.80;39.00;;;;;;5107364;27;46694;-65
2023/06/27 04:38:57;;;;;;;1.80;1.23;;;25.80;39.00;;;;;;5107014;27;45361;-66
2023/06/27 04:41:28;;;;;;;3.33;1.17;;;25.80;39.00;;;;;;5107347;27;45305;-67
2023/06/27 04:43:57;;;;;;;2.03;1.48;;;25.80;39.00;;;;;;5107640;27;45302;-65
2023/06/27 04:46:26;;;;;;;1.73;1.30;;;25.80;39.10;;;;;;5124836;27;45465;-67
2023/06/27 04:48:56;;;;;;;1.55;1.30;;;25.80;39.20;;;;;;5128028;27;45342;-66
2023/06/27 04:51:25;;;;;;;3.47;1.50;;;25.80;39.20;;;;;;5114677;27;45343;-66
2023/06/27 04:53:51;;;;;;;1.65;1.27;;;25.80;39.20;;;;;;5107868;27;45522;-67
2023/06/27 04:56:18;;;;;;;1.23;1.08;;;25.70;39.10;;;;;;5106984;27;45259;-65
2023/06/27 04:58:45;;;;;;;1.30;1.20;;;25.70;39.10;;;;;;5107190;27;45249;-65
2023/06/27 05:01:12;;;;;;;2.25;1.17;;;25.70;39.10;;;;;;5107011;27;45388;-65
2023/06/27 05:03:39;;;;;;;2.28;1.40;;;25.70;39.10;;;;;;5107537;27;45398;-65
2023/06/27 05:06:06;;;;;;;1.35;1.17;;;25.70;39.20;;;;;;5106911;27;47310;-68
2023/06/27 05:08:35;;;;;;;1.33;1.15;;;25.70;39.10;;;;;;5106806;27;45280;-67
2023/06/27 05:11:02;;;;;;;3.28;1.27;;;25.70;39.20;;;;;;5106982;27;45355;-68
2023/06/27 05:13:29;;;;;;;1.88;1.20;;;25.70;39.10;;;;;;5107299;27;45281;-67
2023/06/27 05:15:56;;;;;;;2.33;1.42;;;25.70;39.20;;;;;;5106494;27;45304;-67
2023/06/27 05:18:23;;;;;;;2.72;1.40;;;25.70;39.20;;;;;;5106838;27;45254;-67
2023/06/27 05:20:50;;;;;;;2.35;1.63;;;25.70;39.20;;;;;;5106884;27;45270;-67
2023/06/27 05:23:17;;;;;;;1.98;1.38;;;25.70;39.20;;;;;;5107118;27;45450;-67
2023/06/27 05:25:45;;;;;;;2.22;1.40;;;25.60;39.10;;;;;;5106586;27;46898;-67
2023/06/27 05:28:12;;;;;;;1.35;1.23;;;25.70;39.20;;;;;;5106617;27;45303;-67
2023/06/27 05:30:39;;;;;;;2.50;1.38;;;25.60;39.20;;;;;;5106419;27;45574;-67
2023/06/27 05:33:06;;;;;;;1.58;1.15;;;25.70;39.30;;;;;;5107096;27;45609;-67
2023/06/27 05:35:32;;;;;;;1.65;1.27;;;25.60;39.20;;;;;;5106356;27;46379;-68
2023/06/27 05:37:59;;;;;;;1.40;1.10;;;25.60;39.20;;;;;;5103808;27;45470;-67
2023/06/27 05:40:26;;;;;;;1.23;1.10;;;25.70;39.30;;;;;;5106965;27;45366;-67
2023/06/27 05:42:54;;;;;;;2.25;1.15;;;25.70;39.30;;;;;;5106675;27;45548;-67
2023/06/27 05:45:21;;;;;;;1.20;1.10;;;25.70;39.30;;;;;;5114875;27;45316;-67
2023/06/27 05:47:48;;;;;;;1.20;1.05;;;25.70;39.30;;;;;;5127062;27;45429;-67
2023/06/27 05:50:15;;;;;;;1.40;1.30;;;25.70;39.30;;;;;;5123328;27;45315;-67
2023/06/27 05:52:41;;;;;;;1.77;1.10;;;25.70;39.30;;;;;;5105811;27;45410;-67
2023/06/27 05:55:08;;;;;;;2.22;1.20;;;25.70;39.30;;;;;;5106171;27;45309;-67
2023/06/27 05:57:35;;;;;;;1.90;1.17;;;25.70;39.20;;;;;;5106164;27;45272;-67
2023/06/27 06:00:10;;;;;;;1.60;1.35;;;25.70;39.30;;;;;;5106204;27;45439;-67
2023/06/27 06:02:37;;;;;;;1.17;1.08;;;25.70;39.30;;;;;;5106519;27;45292;-67
2023/06/27 06:05:04;;;;;;;2.90;1.38;;;25.70;39.30;;;;;;5105943;27;46662;-68
2023/06/27 06:07:31;;;;;;;1.08;1.00;;;25.70;39.30;;;;;;5106156;27;45404;-68
2023/06/27 06:09:58;;;;;;;1.17;1.08;;;25.70;39.30;;;;;;5106093;27;45358;-67
2023/06/27 06:12:25;;;;;;;1.73;1.17;;;25.70;39.30;;;;;;5106282;27;45322;-67
2023/06/27 06:14:52;;;;;;;1.67;1.27;;;25.70;39.20;;;;;;5105869;27;46359;-66
2023/06/27 06:17:20;;;;;;;2.47;1.20;;;25.70;39.20;;;;;;5105893;27;45386;-67
2023/06/27 06:19:47;;;;;;;2.15;1.17;;;25.70;39.20;;;;;;5105930;27;45233;-67
2023/06/27 06:22:13;;;;;;;2.35;1.20;;;25.70;39.20;;;;;;5106159;27;45310;-68
2023/06/27 06:24:40;;;;;;;2.30;1.00;;;25.70;39.30;;;;;;5105801;27;47236;-67
2023/06/27 06:27:07;;;;;;;1.58;1.15;;;25.70;39.20;;;;;;5105646;27;45371;-66
2023/06/27 06:29:34;;;;;;;1.60;1.20;;;25.70;39.20;;;;;;5105795;27;45407;-66
2023/06/27 06:32:01;;;;;;;1.83;1.33;;;25.70;39.20;;;;;;5105867;27;45386;-66
2023/06/27 06:34:30;;;;;;;2.53;1.40;;;25.70;39.30;;;;;;5105711;27;45387;-66
2023/06/27 06:36:56;;;;;;;1.65;1.20;;;25.70;39.30;;;;;;5105663;27;45362;-69
2023/06/27 06:39:23;;;;;;;1.58;1.30;;;25.80;39.30;;;;;;5105812;27;45307;-68
2023/06/27 06:41:50;;;;;;;1.55;1.27;;;25.80;39.30;;;;;;5105747;27;45320;-68
2023/06/27 06:44:17;;;;;;;1.35;1.25;;;25.80;39.30;;;;;;5105590;27;45687;-67
2023/06/27 06:46:44;;;;;;;1.85;1.20;;;25.80;39.20;;;;;;5125750;27;45314;-67
2023/06/27 06:49:10;;;;;;;3.22;1.40;;;25.80;39.30;;;;;;5126546;27;45237;-66
2023/06/27 06:51:39;;;;;;;4.60;1.50;;;25.80;39.20;;;;;;5111053;27;45449;-66
2023/06/27 06:54:06;;;;;;;1.52;1.25;;;25.80;39.20;;;;;;5105213;27;46355;-67
2023/06/27 06:56:33;;;;;;;1.85;1.05;;;25.90;39.20;;;;;;5105420;27;45195;-67
2023/06/27 06:59:00;;;;;;;2.05;1.30;;;25.90;39.30;;;;;;5105368;27;45251;-68
2023/06/27 07:01:28;;;;;;;1.08;1.00;;;25.90;39.30;;;;;;5105680;27;45485;-68
2023/06/27 07:03:55;;;;;;;1.80;1.17;;;25.90;39.30;;;;;;5108179;27;46499;-68
2023/06/27 07:06:22;;;;;;;2.47;1.80;;;25.90;39.20;;;;;;5108808;27;45303;-68
2023/06/27 07:08:52;;;;;;;1.20;1.10;;;25.90;39.10;;;;;;5109039;27;45264;-67
2023/06/27 07:11:19;;;;;;;1.58;1.05;;;26.00;39.20;;;;;;5109132;27;45456;-67
2023/06/27 07:13:45;;;;;;;1.33;1.23;;;26.00;39.20;;;;;;5108632;27;45319;-68
2023/06/27 07:16:12;;;;;;;1.55;1.27;;;26.00;39.20;;;;;;5108496;27;45362;-68
2023/06/27 07:18:39;;;;;;;1.70;1.20;;;26.00;39.20;;;;;;5108752;27;45260;-68
2023/06/27 07:21:06;;;;;;;2.28;1.20;;;26.00;39.20;;;;;;5108792;27;45253;-68
2023/06/27 07:23:33;;;;;;;2.17;1.20;;;26.00;39.10;;;;;;5108467;27;46693;-68
2023/06/27 07:26:01;;;;;;;1.13;1.02;;;26.00;39.10;;;;;;5108159;27;45346;-69
2023/06/27 07:28:27;;;;;;;4.70;1.35;;;26.00;39.10;;;;;;5108514;27;45354;-68
2023/06/27 07:30:54;;;;;;;2.33;1.17;;;26.10;39.00;;;;;;5108233;27;45435;-68
2023/06/27 07:33:21;;;;;;;1.70;1.48;;;26.10;39.00;;;;;;5108336;27;46492;-68
2023/06/27 07:35:48;;;;;;;1.23;1.10;;;26.10;39.00;;;;;;5108143;27;45355;-69
2023/06/27 07:38:16;;;;;;;1.33;1.10;;;26.10;38.90;;;;;;5108423;27;45257;-69
2023/06/27 07:40:43;;;;;;;1.27;1.10;;;26.20;38.90;;;;;;5108699;27;45314;-70
2023/06/27 07:43:11;;;;;;;1.48;1.30;;;26.20;38.80;;;;;;5108134;27;46698;-68
2023/06/27 07:45:38;;;;;;;1.13;1.10;;;26.20;38.70;;;;;;5119153;27;45440;-68
2023/06/27 07:48:06;;;;;;;4.20;1.00;;;26.20;38.70;;;;;;5128741;27;45279;-69
2023/06/27 07:50:32;;;;;;;1.95;1.00;;;26.20;38.70;;;;;;5123226;27;45327;-68
2023/06/27 07:52:59;;;;;;;1.60;1.20;;;26.30;38.70;;;;;;5108079;27;46724;-67
2023/06/27 07:55:26;;;;;;;1.17;1.08;;;26.30;38.70;;;;;;5108000;27;45412;-68
2023/06/27 07:57:53;;;;;;;1.20;1.10;;;26.30;39.30;;;;;;5108111;27;45324;-67
2023/06/27 08:00:22;;;;;;;1.15;1.05;;;26.30;38.60;;;;;;5108156;27;45364;-67
2023/06/27 08:02:49;;;;;;;1.63;1.15;;;26.40;38.60;;;;;;5107826;27;46369;-67
2023/06/27 08:05:16;;;;;;;4.07;1.48;;;26.30;39.00;;;;;;5107903;27;45275;-69
2023/06/27 08:07:43;;;;;;;6.40;1.83;;;26.20;39.10;;;;;;5108153;27;45406;-68
2023/06/27 08:10:11;;;;;;;4.40;1.50;;;26.10;39.20;;;;;;5107844;27;45324;-68
2023/06/27 08:12:38;;;;;;;3.90;1.50;;;26.10;39.40;;;;;;5107665;27;47584;-67
2023/06/27 08:15:06;;;;;;;4.88;1.63;;;26.00;39.60;;;;;;5106807;27;45412;-67
2023/06/27 08:17:35;;;;;;;3.63;1.50;;;26.00;39.60;;;;;;5107852;27;45405;-68
2023/06/27 08:20:02;;;;;;;4.03;1.40;;;26.00;39.70;;;;;;5107619;27;45357;-69
2023/06/27 08:22:29;;;;;;;4.53;1.52;;;26.00;39.60;;;;;;5107535;27;46564;-67
2023/06/27 08:24:56;;;;;;;2.22;1.58;;;26.00;40.00;;;;;;5107442;27;45245;-67
2023/06/27 08:27:23;;;;;;;4.55;1.80;;;26.00;39.80;;;;;;5107686;27;45371;-67
2023/06/27 08:29:50;;;;;;;5.80;1.63;;;26.00;39.80;;;;;;5107811;27;45384;-66
2023/06/27 08:32:17;;;;;;;3.78;2.00;;;26.00;39.70;;;;;;5107247;27;46418;-69
2023/06/27 08:34:45;;;;;;;4.07;1.92;;;26.00;39.60;;;;;;5104600;27;45272;-68
2023/06/27 08:37:13;;;;;;;2.83;1.40;;;26.00;39.70;;;;;;5107488;27;45336;-67
2023/06/27 08:39:40;;;;;;;19.15;2.35;;;26.00;39.50;;;;;;5107529;27;45280;-70
2023/06/27 08:42:07;;;;;;;5.15;1.75;;;26.10;39.90;;;;;;5106639;27;46662;-69
2023/06/27 08:44:34;;;;;;;11.25;1.70;;;26.10;39.70;;;;;;5108694;27;45288;-69
2023/06/27 08:47:02;;;;;;;3.25;1.42;;;26.20;39.70;;;;;;5128122;27;45324;-71
2023/06/27 08:49:29;;;;;;;5.82;1.70;;;26.10;39.50;;;;;;5128521;27;45354;-70
2023/06/27 08:51:57;;;;;;;3.25;1.50;;;26.20;39.40;;;;;;5127850;27;45304;-70
2023/06/27 08:54:26;;;;;;;3.42;1.40;;;26.30;39.50;;;;;;5128224;27;45379;-70
2023/06/27 08:56:53;;;;;;;3.60;1.30;;;26.30;39.40;;;;;;5128074;27;45355;-70
2023/06/27 08:59:20;;;;;;;4.25;1.50;;;26.40;39.40;;;;;;5128534;27;45394;-70
2023/06/27 09:01:48;;;;;;;2.55;1.55;;;26.40;39.30;;;;;;5127793;27;45494;-70
2023/06/27 09:04:15;;;;;;;3.67;1.65;;;26.50;39.30;;;;;;5127804;27;45260;-70
2023/06/27 09:06:41;;;;;;;4.20;1.45;;;26.50;39.30;;;;;;5127966;27;45276;-70
2023/06/27 09:09:10;;;;;;;2.85;1.35;;;26.50;39.10;;;;;;5128108;27;45334;-70
2023/06/27 09:11:36;;;;;;;1.75;1.48;;;26.60;39.20;;;;;;5127886;27;46218;-70
2023/06/27 09:14:03;;;;;;;2.95;1.73;;;26.60;39.10;;;;;;5127616;27;45369;-70
2023/06/27 09:16:30;;;;;;;3.05;1.58;;;26.70;39.10;;;;;;5127561;27;45259;-68
2023/06/27 09:18:57;;;;;;;4.05;1.55;;;26.70;39.00;;;;;;5127764;27;45374;-69
2023/06/27 09:21:24;;;;;;;1.88;1.40;;;26.70;39.00;;;;;;5127486;27;45298;-69
2023/06/27 09:23:50;;;;;;;3.03;1.40;;;26.80;39.00;;;;;;5127737;27;45357;-69
2023/06/27 09:26:19;;;;;;;2.58;1.70;;;26.80;38.90;;;;;;5126403;27;45305;-69
2023/06/27 09:28:47;;;;;;;3.65;1.30;;;26.80;38.90;;;;;;5127673;27;45455;-69
2023/06/27 09:31:14;;;;;;;2.30;1.33;;;26.90;38.80;;;;;;5126958;27;46428;-69
2023/06/27 09:33:41;;;;;;;4.25;1.42;;;26.90;38.80;;;;;;5127363;27;45376;-69
2023/06/27 09:36:08;;;;;;;2.33;1.48;;;26.90;38.70;;;;;;5127703;27;45374;-69
2023/06/27 09:38:35;;;;;;;4.25;1.55;;;27.00;38.70;;;;;;5127855;27;45405;-69
2023/06/27 09:41:03;;;;;;;3.53;1.50;;;27.00;38.70;;;;;;5127283;27;45425;-69
2023/06/27 09:43:35;;;;;;;3.85;1.48;;;27.00;38.60;;;;;;5127354;27;45392;-69
2023/06/27 09:46:02;;;;;;;2.28;1.58;;;27.00;38.60;;;;;;5112742;27;45281;-69
2023/06/27 09:48:29;;;;;;;2.25;1.30;;;27.10;38.60;;;;;;5107079;27;45321;-69
2023/06/27 09:50:59;;;;;;;1.95;1.25;;;27.10;38.50;;;;;;5106476;27;47637;-68
2023/06/27 09:53:26;;;;;;;3.40;1.42;;;27.10;38.50;;;;;;5106552;27;45305;-69
2023/06/27 09:56:02;;;;;;;3.20;1.40;;;27.20;38.50;;;;;;5104096;27;45313;-70
2023/06/27 09:58:29;;;;;;;1.52;1.42;;;27.20;38.40;;;;;;5106819;27;45273;-70
2023/06/27 10:01:06;;;;;;;2.40;1.30;;;27.20;38.40;;;;;;5106162;27;45321;-70
2023/06/27 10:03:34;;;;;;;2.15;1.50;;;27.30;38.40;;;;;;5106569;27;45366;-71
2023/06/27 10:06:00;;;;;;;2.53;1.25;;;27.30;38.40;;;;;;5106521;27;45307;-70
2023/06/27 10:08:28;;;;;;;1.23;1.13;;;27.30;38.40;;;;;;5107011;27;45386;-71
2023/06/27 10:10:56;;;;;;;2.28;1.60;;;27.40;38.70;;;;;;5106436;27;46276;-71
2023/06/27 10:13:23;;;;;;;2.95;1.55;;;27.40;38.40;;;;;;5106583;27;45248;-71
2023/06/27 10:15:50;;;;;;;1.30;1.10;;;27.40;38.70;;;;;;5107125;27;45276;-72
2023/06/27 10:18:18;;;;;;;4.07;1.38;;;27.40;38.90;;;;;;5107096;27;45486;-71
2023/06/27 10:20:45;;;;;;;3.38;1.73;;;27.50;39.70;;;;;;5106324;27;45592;-70
2023/06/27 10:23:12;;;;;;;2.38;1.60;;;27.50;39.00;;;;;;5105965;27;45495;-70
2023/06/27 10:25:39;;;;;;;4.60;1.58;;;27.50;38.90;;;;;;5106336;27;45309;-70
2023/06/27 10:28:06;;;;;;;2.88;1.60;;;27.60;38.90;;;;;;5106285;27;45494;-70
2023/06/27 10:30:35;;;;;;;5.28;1.80;;;27.60;38.80;;;;;;5105885;27;46731;-70
2023/06/27 10:33:20;;;;;;;3.00;1.73;;;27.60;38.80;;;;;;5106095;27;45374;-70
2023/06/27 10:35:51;;;;;;;5.85;2.20;;;27.60;38.60;;;;;;5106026;27;45292;-70
2023/06/27 10:38:19;;;;;;;4.65;1.75;;;27.70;38.50;;;;;;5108244;27;45334;-69
2023/06/27 10:41:11;;;;;;;2.28;2.08;;;27.70;38.30;;;;;;5109345;27;46787;-70
2023/06/27 10:43:39;;;;;;;5.13;2.10;;;27.70;38.30;;;;;;5109832;27;45388;-70
2023/06/27 10:46:06;;;;;;;3.63;2.00;;;27.70;37.90;;;;;;5124503;27;45322;-70
2023/06/27 10:48:35;;;;;;;5.90;2.63;;;27.70;37.90;;;;;;5130288;27;45591;-70
2023/06/27 10:51:06;;;;;;;5.70;2.53;;;27.70;38.00;;;;;;5119774;27;46405;-70
2023/06/27 10:53:33;;;;;;;4.25;1.80;;;27.80;37.90;;;;;;5109353;27;45351;-71
2023/06/27 10:56:14;;;;;;;7.40;1.92;;;27.80;37.80;;;;;;5109719;27;45350;-70
2023/06/27 10:58:44;;;;;;;2.35;2.00;;;27.80;37.50;;;;;;5109627;27;45360;-71
2023/06/27 11:01:11;;;;;;;4.55;2.47;;;27.90;37.60;;;;;;5109568;27;45280;-71
2023/06/27 11:03:39;;;;;;;4.82;1.92;;;27.90;37.40;;;;;;5109316;27;45272;-70
2023/06/27 11:06:08;;;;;;;7.32;2.20;;;27.90;37.40;;;;;;5107062;27;45368;-71
2023/06/27 11:08:34;;;;;;;3.45;2.30;;;27.90;37.40;;;;;;5109550;27;45364;-71
2023/06/27 11:11:06;;;;;;;5.07;2.10;;;27.90;37.40;;;;;;5108971;27;45216;-70
2023/06/27 11:13:35;;;;;;;7.20;2.22;;;27.90;37.30;;;;;;5108961;27;45302;-71
2023/06/27 11:16:02;;;;;;;5.15;2.10;;;28.00;37.40;;;;;;5109196;27;45197;-70
2023/06/27 11:18:29;;;;;;;6.65;2.83;;;28.00;37.20;;;;;;5109154;27;45350;-70
2023/06/27 11:20:56;;;;;;;8.02;2.22;;;28.00;37.00;;;;;;5109239;27;47422;-71
2023/06/27 11:23:25;;;;;;;6.10;2.20;;;28.10;37.10;;;;;;5109193;27;45311;-71
2023/06/27 11:25:52;;;;;;;5.18;2.20;;;28.10;37.10;;;;;;5109087;27;45299;-71
2023/06/27 11:28:20;;;;;;;5.35;2.58;;;28.20;37.40;;;;;;5109103;27;45314;-70
2023/06/27 11:30:47;;;;;;;4.97;2.13;;;28.20;36.80;;;;;;5108359;27;46364;-70
2023/06/27 11:33:16;;;;;;;4.28;2.28;;;28.20;36.60;;;;;;5108547;27;45324;-70
2023/06/27 11:35:43;;;;;;;4.43;2.33;;;28.20;36.50;;;;;;5108771;27;45330;-70
2023/06/27 11:38:10;;;;;;;5.35;2.38;;;28.20;36.70;;;;;;5115635;27;45373;-70
2023/06/27 11:40:38;;;;;;;8.10;2.38;;;28.30;36.90;;;;;;5114916;27;46935;-70
2023/06/27 11:43:06;;;;;;;5.53;2.17;;;28.30;36.70;;;;;;5115527;27;45491;-71
2023/06/27 11:45:33;;;;;;;5.45;2.35;;;28.30;36.50;;;;;;5117807;27;45678;-71
2023/06/27 11:47:59;;;;;;;5.32;2.28;;;28.30;36.30;;;;;;5121574;27;45354;-71
2023/06/27 11:50:26;;;;;;;4.45;1.95;;;28.40;36.30;;;;;;5120542;27;45445;-70
2023/06/27 11:52:53;;;;;;;3.97;2.20;;;28.50;36.30;;;;;;5121037;27;45493;-69
2023/06/27 11:55:20;;;;;;;5.20;2.10;;;28.50;36.40;;;;;;5120740;27;45436;-69
2023/06/27 11:57:49;;;;;;;7.15;2.10;;;28.50;36.50;;;;;;5115822;27;45409;-70
2023/06/27 12:00:18;;;;;;;14.00;2.65;;;28.50;36.20;;;;;;5121144;27;46408;-70
2023/06/27 12:02:48;;;;;;;5.22;1.70;;;28.50;34.60;;;;;;5127530;27;45414;-70
2023/06/27 12:05:16;;;;;;;5.13;2.17;;;28.40;34.10;;;;;;5115823;27;45279;-72
2023/06/27 12:07:54;;;;;;;2.72;1.90;;;28.40;34.20;;;;;;5120360;27;45391;-70
2023/06/27 12:10:21;;;;;;;5.13;1.90;;;28.40;33.60;;;;;;5112501;27;46713;-70
2023/06/27 12:12:50;;;;;;;2.72;1.77;;;28.30;33.30;;;;;;5114987;27;45333;-69
2023/06/27 12:15:17;;;;;;;2.42;1.50;;;28.10;33.30;;;;;;5119480;27;45312;-70
2023/06/27 12:17:59;;;;;;;4.97;1.60;;;28.00;33.40;;;;;;5118279;27;45351;-69
2023/06/27 12:20:27;;;;;;;3.53;1.70;;;27.90;33.50;;;;;;5115369;27;46597;-70
2023/06/27 12:22:53;;;;;;;3.55;1.70;;;27.80;33.40;;;;;;5118498;27;45383;-70
2023/06/27 12:25:20;;;;;;;6.03;1.70;;;27.70;33.50;;;;;;5119028;27;45280;-68
2023/06/27 12:27:48;;;;;;;1.63;1.15;;;27.60;33.30;;;;;;5115630;27;45323;-70
2023/06/27 12:30:15;;;;;;;2.45;1.70;;;27.60;33.00;;;;;;5112152;27;45520;-69
2023/06/27 12:32:42;;;;;;;17.55;1.73;;;27.60;33.00;;;;;;5112208;27;45472;-69
2023/06/27 12:35:09;;;;;;;3.40;1.85;;;27.60;33.20;;;;;;5112874;27;45561;-70
2023/06/27 12:37:38;;;;;;;3.92;1.70;;;27.50;33.00;;;;;;5120256;27;45617;-69
2023/06/27 12:40:06;;;;;;;3.20;1.13;;;27.60;33.20;;;;;;5116883;27;46614;-69
2023/06/27 12:42:32;;;;;;;2.83;1.65;;;27.70;33.20;;;;;;5117029;27;45325;-69
2023/06/27 12:45:01;;;;;;;2.75;1.42;;;27.70;33.40;;;;;;5114189;27;45629;-69
2023/06/27 12:47:27;;;;;;;2.95;1.60;;;27.70;33.40;;;;;;5115163;27;45240;-69